sensor_id;sensor_type;location;lat;lon;timestamp;pressure;altitude;pressure_sealevel;temperature;humidity
21357;BME280;10836;53.068;18.234;2023-06-04T00:02:29;101761.41;;;4.87;100.00
21357;BME280;10836;53.068;18.234;2023-06-04T00:04:56;101767.66;;;4.94;100.00
21357;BME280;10836;53.068;18.234;2023-06-04T00:07:23;101766.81;;;5.00;100.00
21357;BME280;10836;53.068;18.234;2023-06-04T00:09:50;101758.50;;;4.95;100.00
21357;BME280;10836;53.068;18.234;2023-06-04T00:12:17;101763.47;;;5.11;100.00
21357;BME280;10836;53.068;18.234;2023-06-04T00:14:44;101758.91;;;5.05;100.00
21357;BME280;10836;53.068;18.234;2023-06-04T00:17:11;101754.75;;;4.96;100.00
21357;BME280;10836;53.068;18.234;2023-06-04T00:19:39;101754.34;;;4.86;100.00
21357;BME280;10836;53.068;18.234;2023-06-04T00:22:07;101755.59;;;4.77;100.00
21357;BME280;10836;53.068;18.234;2023-06-04T00:24:36;101753.09;;;4.82;100.00
21357;BME280;10836;53.068;18.234;2023-06-04T00:27:03;101756.44;;;4.77;100.00
21357;BME280;10836;53.068;18.234;2023-06-04T00:29:31;101754.38;;;4.73;100.00
21357;BME280;10836;53.068;18.234;2023-06-04T00:31:57;101758.91;;;4.79;100.00
21357;BME280;10836;53.068;18.234;2023-06-04T00:34:25;101754.34;;;4.79;100.00
21357;BME280;10836;53.068;18.234;2023-06-04T00:36:52;101760.41;;;4.75;100.00
21357;BME280;10836;53.068;18.234;2023-06-04T00:39:19;101750.00;;;4.58;100.00
21357;BME280;10836;53.068;18.234;2023-06-04T00:41:46;101753.13;;;4.55;100.00
21357;BME280;10836;53.068;18.234;2023-06-04T00:44:13;101750.84;;;4.52;100.00
21357;BME280;10836;53.068;18.234;2023-06-04T00:46:40;101743.13;;;4.49;100.00
21357;BME280;10836;53.068;18.234;2023-06-04T00:49:07;101745.84;;;4.43;100.00
21357;BME280;10836;53.068;18.234;2023-06-04T00:51:34;101740.22;;;4.44;100.00
21357;BME280;10836;53.068;18.234;2023-06-04T00:54:03;101744.81;;;4.57;100.00
21357;BME280;10836;53.068;18.234;2023-06-04T00:56:36;101741.69;;;4.53;100.00
21357;BME280;10836;53.068;18.234;2023-06-04T00:59:05;101741.03;;;4.38;100.00
21357;BME280;10836;53.068;18.234;2023-06-04T01:01:53;101738.69;;;3.95;100.00
21357;BME280;10836;53.068;18.234;2023-06-04T01:04:40;101750.34;;;3.96;100.00
21357;BME280;10836;53.068;18.234;2023-06-04T01:07:09;101746.59;;;3.90;100.00
21357;BME280;10836;53.068;18.234;2023-06-04T01:09:39;101737.66;;;3.83;100.00
21357;BME280;10836;53.068;18.234;2023-06-04T01:12:07;101737.88;;;3.88;100.00
21357;BME280;10836;53.068;18.234;2023-06-04T01:14:34;101731.84;;;3.99;100.00
21357;BME280;10836;53.068;18.234;2023-06-04T01:17:09;101741.19;;;3.90;100.00
21357;BME280;10836;53.068;18.234;2023-06-04T01:22:38;101745.94;;;3.75;100.00
21357;BME280;10836;53.068;18.234;2023-06-04T01:27:56;101739.31;;;3.84;100.00
21357;BME280;10836;53.068;18.234;2023-06-04T01:30:29;101740.16;;;3.85;100.00
21357;BME280;10836;53.068;18.234;2023-06-04T01:32:57;101740.16;;;3.85;100.00
21357;BME280;10836;53.068;18.234;2023-06-04T01:35:26;101741.41;;;3.95;100.00
21357;BME280;10836;53.068;18.234;2023-06-04T01:37:55;101746.81;;;3.89;100.00
21357;BME280;10836;53.068;18.234;2023-06-04T01:40:23;101745.56;;;3.91;100.00
21357;BME280;10836;53.068;18.234;2023-06-04T01:42:50;101743.06;;;3.83;100.00
21357;BME280;10836;53.068;18.234;2023-06-04T01:45:17;101745.66;;;3.57;100.00
21357;BME280;10836;53.068;18.234;2023-06-04T01:47:44;101739.28;;;3.71;100.00
21357;BME280;10836;53.068;18.234;2023-06-04T01:50:11;101745.25;;;3.60;100.00
21357;BME280;10836;53.068;18.234;2023-06-04T01:52:39;101751.28;;;3.62;100.00
21357;BME280;10836;53.068;18.234;2023-06-04T01:55:09;101751.75;;;3.72;100.00
21357;BME280;10836;53.068;18.234;2023-06-04T01:57:39;101752.13;;;3.62;100.00
21357;BME280;10836;53.068;18.234;2023-06-04T02:00:07;101752.16;;;3.69;100.00
21357;BME280;10836;53.068;18.234;2023-06-04T02:02:40;101747.09;;;3.53;100.00
21357;BME280;10836;53.068;18.234;2023-06-04T02:05:10;101753.75;;;3.57;100.00
21357;BME280;10836;53.068;18.234;2023-06-04T02:07:38;101749.63;;;3.61;100.00
21357;BME280;10836;53.068;18.234;2023-06-04T02:10:09;101756.47;;;3.57;100.00
21357;BME280;10836;53.068;18.234;2023-06-04T02:12:38;101753.72;;;3.44;100.00
21357;BME280;10836;53.068;18.234;2023-06-04T02:15:07;101752.06;;;3.43;100.00
21357;BME280;10836;53.068;18.234;2023-06-04T02:17:34;101739.97;;;3.32;100.00
21357;BME280;10836;53.068;18.234;2023-06-04T02:20:05;101746.75;;;3.21;100.00
21357;BME280;10836;53.068;18.234;2023-06-04T02:22:32;101741.19;;;3.29;100.00
21357;BME280;10836;53.068;18.234;2023-06-04T02:24:59;101744.09;;;3.28;100.00
21357;BME280;10836;53.068;18.234;2023-06-04T02:27:27;101746.97;;;3.26;100.00
21357;BME280;10836;53.068;18.234;2023-06-04T02:29:55;101747.53;;;3.15;100.00
21357;BME280;10836;53.068;18.234;2023-06-04T02:32:22;101741.84;;;2.97;100.00
21357;BME280;10836;53.068;18.234;2023-06-04T02:34:49;101746.25;;;2.77;100.00
21357;BME280;10836;53.068;18.234;2023-06-04T02:37:16;101742.53;;;2.78;100.00
21357;BME280;10836;53.068;18.234;2023-06-04T02:39:43;101745.09;;;2.86;100.00
21357;BME280;10836;53.068;18.234;2023-06-04T02:42:10;101742.63;;;2.91;100.00
21357;BME280;10836;53.068;18.234;2023-06-04T02:44:37;101742.69;;;3.04;100.00
21357;BME280;10836;53.068;18.234;2023-06-04T02:47:04;101752.25;;;3.07;100.00
21357;BME280;10836;53.068;18.234;2023-06-04T02:49:31;101754.13;;;2.99;100.00
21357;BME280;10836;53.068;18.234;2023-06-04T02:51:58;101751.03;;;3.03;100.00
21357;BME280;10836;53.068;18.234;2023-06-04T02:54:26;101745.38;;;2.97;100.00
21357;BME280;10836;53.068;18.234;2023-06-04T02:56:52;101751.84;;;3.03;100.00
21357;BME280;10836;53.068;18.234;2023-06-04T02:59:20;101756.03;;;3.12;100.00
21357;BME280;10836;53.068;18.234;2023-06-04T03:01:47;101746.91;;;3.13;100.00
21357;BME280;10836;53.068;18.234;2023-06-04T03:04:15;101749.91;;;3.31;100.00
21357;BME280;10836;53.068;18.234;2023-06-04T03:06:42;101744.13;;;3.34;100.00
21357;BME280;10836;53.068;18.234;2023-06-04T03:09:13;101743.25;;;3.27;100.00
21357;BME280;10836;53.068;18.234;2023-06-04T03:11:40;101744.09;;;3.28;100.00
21357;BME280;10836;53.068;18.234;2023-06-04T03:14:08;101741.66;;;3.40;100.00
21357;BME280;10836;53.068;18.234;2023-06-04T03:16:35;101743.72;;;3.38;100.00
21357;BME280;10836;53.068;18.234;2023-06-04T03:19:06;101743.72;;;3.38;100.00
21357;BME280;10836;53.068;18.234;2023-06-04T03:21:33;101739.16;;;3.38;100.00
21357;BME280;10836;53.068;18.234;2023-06-04T03:24:00;101745.00;;;3.42;100.00
21357;BME280;10836;53.068;18.234;2023-06-04T03:26:27;101748.75;;;3.54;100.00
21357;BME280;10836;53.068;18.234;2023-06-04T03:28:55;101750.47;;;3.68;100.00
21357;BME280;10836;53.068;18.234;2023-06-04T03:31:22;101748.88;;;3.87;100.00
21357;BME280;10836;53.068;18.234;2023-06-04T03:33:50;101744.31;;;3.87;100.00
21357;BME280;10836;53.068;18.234;2023-06-04T03:36:16;101756.81;;;4.08;100.00
21357;BME280;10836;53.068;18.234;2023-06-04T03:38:45;101748.94;;;4.20;100.00
21357;BME280;10836;53.068;18.234;2023-06-04T03:41:12;101744.78;;;4.24;100.00
21357;BME280;10836;53.068;18.234;2023-06-04T03:43:40;101748.75;;;4.41;100.00
21357;BME280;10836;53.068;18.234;2023-06-04T03:46:10;101754.38;;;4.59;100.00
21357;BME280;10836;53.068;18.234;2023-06-04T03:48:37;101738.16;;;4.73;100.00
21357;BME280;10836;53.068;18.234;2023-06-04T03:51:04;101747.88;;;4.87;100.00
21357;BME280;10836;53.068;18.234;2023-06-04T03:53:32;101742.25;;;4.95;100.00
21357;BME280;10836;53.068;18.234;2023-06-04T03:56:00;101748.91;;;5.12;100.00
21357;BME280;10836;53.068;18.234;2023-06-04T03:58:28;101748.41;;;5.28;100.00
21357;BME280;10836;53.068;18.234;2023-06-04T04:00:56;101742.56;;;5.38;100.00
21357;BME280;10836;53.068;18.234;2023-06-04T04:03:24;101742.91;;;5.55;100.00
21357;BME280;10836;53.068;18.234;2023-06-04T04:05:51;101744.97;;;5.59;100.00
21357;BME280;10836;53.068;18.234;2023-06-04T04:08:19;101746.16;;;5.70;100.00
21357;BME280;10836;53.068;18.234;2023-06-04T04:10:48;101746.09;;;5.83;100.00
21357;BME280;10836;53.068;18.234;2023-06-04T04:13:15;101750.22;;;5.99;100.00
21357;BME280;10836;53.068;18.234;2023-06-04T04:15:42;101745.09;;;6.16;100.00
21357;BME280;10836;53.068;18.234;2023-06-04T04:18:09;101737.31;;;6.26;100.00
21357;BME280;10836;53.068;18.234;2023-06-04T04:20:37;101732.66;;;6.33;100.00
21357;BME280;10836;53.068;18.234;2023-06-04T04:23:08;101735.13;;;6.41;100.00
21357;BME280;10836;53.068;18.234;2023-06-04T04:25:36;101736.66;;;6.55;100.00
21357;BME280;10836;53.068;18.234;2023-06-04T04:28:05;101727.91;;;6.78;100.00
21357;BME280;10836;53.068;18.234;2023-06-04T04:30:40;101726.94;;;6.91;100.00
21357;BME280;10836;53.068;18.234;2023-06-04T04:33:08;101723.47;;;7.02;100.00
21357;BME280;10836;53.068;18.234;2023-06-04T04:35:42;101727.09;;;7.14;100.00
21357;BME280;10836;53.068;18.234;2023-06-04T04:38:14;101718.78;;;7.46;100.00
21357;BME280;10836;53.068;18.234;2023-06-04T04:40:49;101718.16;;;7.62;98.61
21357;BME280;10836;53.068;18.234;2023-06-04T04:43:32;101723.44;;;7.75;96.75
21357;BME280;10836;53.068;18.234;2023-06-04T04:46:07;101720.66;;;7.93;97.11
21357;BME280;10836;53.068;18.234;2023-06-04T04:48:36;101717.28;;;8.10;95.63
21357;BME280;10836;53.068;18.234;2023-06-04T04:51:05;101729.03;;;8.22;96.02
21357;BME280;10836;53.068;18.234;2023-06-04T04:53:32;101717.94;;;8.35;94.21
21357;BME280;10836;53.068;18.234;2023-06-04T04:55:59;101725.56;;;8.56;92.06
21357;BME280;10836;53.068;18.234;2023-06-04T04:58:28;101729.00;;;8.75;89.47
21357;BME280;10836;53.068;18.234;2023-06-04T05:00:55;101727.56;;;8.73;89.62
21357;BME280;10836;53.068;18.234;2023-06-04T05:03:22;101728.88;;;8.82;90.32
21357;BME280;10836;53.068;18.234;2023-06-04T05:05:49;101727.34;;;9.09;88.16
21357;BME280;10836;53.068;18.234;2023-06-04T05:08:17;101732.03;;;9.25;87.22
21357;BME280;10836;53.068;18.234;2023-06-04T05:10:44;101744.94;;;9.42;86.28
21357;BME280;10836;53.068;18.234;2023-06-04T05:13:12;101741.66;;;9.68;84.42
21357;BME280;10836;53.068;18.234;2023-06-04T05:15:45;101749.31;;;9.83;84.31
21357;BME280;10836;53.068;18.234;2023-06-04T05:18:18;101741.31;;;9.93;84.86
21357;BME280;10836;53.068;18.234;2023-06-04T05:20:48;101755.56;;;10.12;83.65
21357;BME280;10836;53.068;18.234;2023-06-04T05:23:16;101751.50;;;10.26;82.77
21357;BME280;10836;53.068;18.234;2023-06-04T05:25:46;101751.25;;;10.44;82.19
21357;BME280;10836;53.068;18.234;2023-06-04T05:28:16;101742.44;;;10.71;79.24
21357;BME280;10836;53.068;18.234;2023-06-04T05:30:44;101744.69;;;11.12;77.35
21357;BME280;10836;53.068;18.234;2023-06-04T05:33:13;101744.34;;;11.25;75.13
21357;BME280;10836;53.068;18.234;2023-06-04T05:35:50;101753.31;;;11.64;73.72
21357;BME280;10836;53.068;18.234;2023-06-04T05:38:27;101753.06;;;11.88;73.85
21357;BME280;10836;53.068;18.234;2023-06-04T05:40:57;101747.69;;;12.25;75.08
21357;BME280;10836;53.068;18.234;2023-06-04T05:43:28;101756.75;;;12.57;70.37
21357;BME280;10836;53.068;18.234;2023-06-04T05:45:55;101757.97;;;12.72;68.16
21357;BME280;10836;53.068;18.234;2023-06-04T05:48:22;101753.47;;;13.35;63.35
21357;BME280;10836;53.068;18.234;2023-06-04T05:50:49;101756.66;;;13.74;64.54
21357;BME280;10836;53.068;18.234;2023-06-04T05:53:18;101765.94;;;14.71;62.48
21357;BME280;10836;53.068;18.234;2023-06-04T05:55:56;101770.16;;;15.53;52.21
21357;BME280;10836;53.068;18.234;2023-06-04T05:58:23;101767.28;;;17.01;49.62
21357;BME280;10836;53.068;18.234;2023-06-04T06:00:51;101765.63;;;19.16;44.71
21357;BME280;10836;53.068;18.234;2023-06-04T06:03:18;101766.16;;;21.83;37.79
21357;BME280;10836;53.068;18.234;2023-06-04T06:05:48;101767.75;;;21.27;36.69
21357;BME280;10836;53.068;18.234;2023-06-04T06:08:15;101768.13;;;21.91;35.32
21357;BME280;10836;53.068;18.234;2023-06-04T06:10:42;101772.22;;;23.44;31.48
21357;BME280;10836;53.068;18.234;2023-06-04T06:13:10;101771.56;;;23.55;31.88
21357;BME280;10836;53.068;18.234;2023-06-04T06:15:36;101772.78;;;26.10;29.02
21357;BME280;10836;53.068;18.234;2023-06-04T06:18:04;101766.97;;;26.83;27.32
21357;BME280;10836;53.068;18.234;2023-06-04T06:20:31;101763.91;;;24.98;28.28
21357;BME280;10836;53.068;18.234;2023-06-04T06:23:06;101772.72;;;27.18;26.73
21357;BME280;10836;53.068;18.234;2023-06-04T06:25:34;101774.41;;;26.35;25.26
21357;BME280;10836;53.068;18.234;2023-06-04T06:28:07;101772.81;;;24.92;27.83
21357;BME280;10836;53.068;18.234;2023-06-04T06:30:35;101776.25;;;24.97;27.66
21357;BME280;10836;53.068;18.234;2023-06-04T06:33:03;101774.91;;;22.85;29.81
21357;BME280;10836;53.068;18.234;2023-06-04T06:35:30;101772.25;;;21.45;31.28
21357;BME280;10836;53.068;18.234;2023-06-04T06:37:57;101770.31;;;22.03;30.30
21357;BME280;10836;53.068;18.234;2023-06-04T06:40:24;101773.63;;;21.56;31.66
21357;BME280;10836;53.068;18.234;2023-06-04T06:42:51;101772.78;;;20.94;33.37
21357;BME280;10836;53.068;18.234;2023-06-04T06:45:19;101785.97;;;21.42;31.70
21357;BME280;10836;53.068;18.234;2023-06-04T06:47:46;101780.34;;;21.64;32.07
21357;BME280;10836;53.068;18.234;2023-06-04T06:50:13;101773.53;;;21.08;31.22
21357;BME280;10836;53.068;18.234;2023-06-04T06:52:40;101777.25;;;20.73;32.56
21357;BME280;10836;53.068;18.234;2023-06-04T06:55:08;101768.81;;;20.06;34.25
21357;BME280;10836;53.068;18.234;2023-06-04T06:57:35;101770.84;;;20.14;32.58
21357;BME280;10836;53.068;18.234;2023-06-04T07:00:02;101775.91;;;20.48;30.49
21357;BME280;10836;53.068;18.234;2023-06-04T07:02:30;101775.22;;;20.65;29.68
21357;BME280;10836;53.068;18.234;2023-06-04T07:04:57;101770.03;;;20.72;30.60
21357;BME280;10836;53.068;18.234;2023-06-04T07:07:24;101767.22;;;19.77;29.96
21357;BME280;10836;53.068;18.234;2023-06-04T07:09:50;101765.94;;;20.11;31.33
21357;BME280;10836;53.068;18.234;2023-06-04T07:12:17;101772.22;;;20.83;28.23
21357;BME280;10836;53.068;18.234;2023-06-04T07:14:44;101770.38;;;21.01;30.54
21357;BME280;10836;53.068;18.234;2023-06-04T07:17:12;101765.69;;;21.10;29.28
21357;BME280;10836;53.068;18.234;2023-06-04T07:19:38;101767.97;;;21.08;30.47
21357;BME280;10836;53.068;18.234;2023-06-04T07:22:05;101757.63;;;21.71;28.10
21357;BME280;10836;53.068;18.234;2023-06-04T07:24:32;101758.16;;;21.33;28.86
21357;BME280;10836;53.068;18.234;2023-06-04T07:26:59;101765.31;;;20.72;32.00
21357;BME280;10836;53.068;18.234;2023-06-04T07:29:26;101761.31;;;20.87;31.07
21357;BME280;10836;53.068;18.234;2023-06-04T07:31:53;101752.69;;;21.19;30.02
21357;BME280;10836;53.068;18.234;2023-06-04T07:34:20;101752.56;;;21.81;32.85
21357;BME280;10836;53.068;18.234;2023-06-04T07:36:47;101755.75;;;21.49;30.15
21357;BME280;10836;53.068;18.234;2023-06-04T07:39:14;101757.50;;;21.84;29.02
21357;BME280;10836;53.068;18.234;2023-06-04T07:41:41;101760.44;;;21.31;28.33
21357;BME280;10836;53.068;18.234;2023-06-04T07:44:08;101763.84;;;21.28;30.29
21357;BME280;10836;53.068;18.234;2023-06-04T07:46:35;101759.22;;;21.54;29.01
21357;BME280;10836;53.068;18.234;2023-06-04T07:49:02;101760.75;;;21.86;27.74
21357;BME280;10836;53.068;18.234;2023-06-04T07:51:29;101756.09;;;22.04;29.17
21357;BME280;10836;53.068;18.234;2023-06-04T07:53:56;101759.19;;;22.03;27.29
21357;BME280;10836;53.068;18.234;2023-06-04T07:56:23;101759.13;;;21.85;30.16
21357;BME280;10836;53.068;18.234;2023-06-04T07:58:50;101752.91;;;21.88;28.43
21357;BME280;10836;53.068;18.234;2023-06-04T08:01:17;101752.81;;;22.45;26.83
21357;BME280;10836;53.068;18.234;2023-06-04T08:03:43;101753.94;;;22.79;28.35
21357;BME280;10836;53.068;18.234;2023-06-04T08:06:11;101749.22;;;22.02;26.81
21357;BME280;10836;53.068;18.234;2023-06-04T08:08:44;101744.47;;;22.28;27.82
21357;BME280;10836;53.068;18.234;2023-06-04T08:11:14;101737.59;;;22.17;26.97
21357;BME280;10836;53.068;18.234;2023-06-04T08:13:41;101742.47;;;21.37;28.39
21357;BME280;10836;53.068;18.234;2023-06-04T08:16:08;101742.41;;;20.44;28.25
21357;BME280;10836;53.068;18.234;2023-06-04T08:18:39;101740.03;;;20.51;28.79
21357;BME280;10836;53.068;18.234;2023-06-04T08:21:10;101744.03;;;21.69;28.64
21357;BME280;10836;53.068;18.234;2023-06-04T08:23:38;101752.78;;;21.06;27.65
21357;BME280;10836;53.068;18.234;2023-06-04T08:26:06;101751.38;;;20.64;28.29
21357;BME280;10836;53.068;18.234;2023-06-04T08:28:34;101754.50;;;21.24;28.08
21357;BME280;10836;53.068;18.234;2023-06-04T08:31:02;101745.53;;;20.96;29.17
21357;BME280;10836;53.068;18.234;2023-06-04T08:33:28;101748.91;;;21.15;26.86
21357;BME280;10836;53.068;18.234;2023-06-04T08:35:55;101750.22;;;21.18;28.82
21357;BME280;10836;53.068;18.234;2023-06-04T08:38:22;101751.19;;;21.53;29.57
21357;BME280;10836;53.068;18.234;2023-06-04T08:40:52;101740.97;;;21.22;28.75
21357;BME280;10836;53.068;18.234;2023-06-04T08:43:20;101748.59;;;21.56;30.35
21357;BME280;10836;53.068;18.234;2023-06-04T08:45:49;101742.75;;;21.75;28.42
21357;BME280;10836;53.068;18.234;2023-06-04T08:48:18;101742.78;;;22.62;25.96
21357;BME280;10836;53.068;18.234;2023-06-04T08:50:48;101740.84;;;22.19;26.63
21357;BME280;10836;53.068;18.234;2023-06-04T08:53:17;101734.47;;;21.36;27.39
21357;BME280;10836;53.068;18.234;2023-06-04T08:55:45;101736.69;;;21.73;27.27
21357;BME280;10836;53.068;18.234;2023-06-04T08:58:13;101738.06;;;22.53;28.10
21357;BME280;10836;53.068;18.234;2023-06-04T09:00:41;101735.56;;;22.78;26.11
21357;BME280;10836;53.068;18.234;2023-06-04T09:03:08;101726.88;;;23.94;24.29
21357;BME280;10836;53.068;18.234;2023-06-04T09:05:38;101728.28;;;24.00;24.87
21357;BME280;10836;53.068;18.234;2023-06-04T09:08:08;101736.16;;;23.09;24.76
21357;BME280;10836;53.068;18.234;2023-06-04T09:10:38;101735.31;;;22.45;26.17
21357;BME280;10836;53.068;18.234;2023-06-04T09:13:06;101736.66;;;23.41;25.87
21357;BME280;10836;53.068;18.234;2023-06-04T09:15:35;101736.09;;;23.85;24.87
21357;BME280;10836;53.068;18.234;2023-06-04T09:18:02;101741.31;;;24.16;25.01
21357;BME280;10836;53.068;18.234;2023-06-04T09:20:29;101728.91;;;24.26;24.28
21357;BME280;10836;53.068;18.234;2023-06-04T09:22:57;101726.09;;;25.25;23.13
21357;BME280;10836;53.068;18.234;2023-06-04T09:25:26;101729.56;;;23.22;24.29
21357;BME280;10836;53.068;18.234;2023-06-04T09:27:54;101721.81;;;22.90;25.86
21357;BME280;10836;53.068;18.234;2023-06-04T09:30:23;101726.09;;;22.79;26.87
21357;BME280;10836;53.068;18.234;2023-06-04T09:32:50;101729.91;;;23.12;26.01
21357;BME280;10836;53.068;18.234;2023-06-04T09:35:18;101725.78;;;22.54;25.68
21357;BME280;10836;53.068;18.234;2023-06-04T09:37:54;101723.19;;;22.32;25.25
21357;BME280;10836;53.068;18.234;2023-06-04T09:40:23;101730.28;;;23.02;26.62
21357;BME280;10836;53.068;18.234;2023-06-04T09:42:51;101717.38;;;23.36;25.63
21357;BME280;10836;53.068;18.234;2023-06-04T09:45:28;101714.34;;;24.41;23.98
21357;BME280;10836;53.068;18.234;2023-06-04T09:47:56;101712.72;;;23.99;24.42
21357;BME280;10836;53.068;18.234;2023-06-04T09:50:29;101719.75;;;23.16;24.47
21357;BME280;10836;53.068;18.234;2023-06-04T09:52:56;101714.50;;;22.25;26.15
21357;BME280;10836;53.068;18.234;2023-06-04T09:55:23;101711.06;;;22.45;24.58
21357;BME280;10836;53.068;18.234;2023-06-04T09:57:51;101718.22;;;22.81;24.37
21357;BME280;10836;53.068;18.234;2023-06-04T10:00:20;101714.03;;;22.06;26.10
21357;BME280;10836;53.068;18.234;2023-06-04T10:02:56;101723.81;;;22.81;26.21
21357;BME280;10836;53.068;18.234;2023-06-04T10:05:24;101724.38;;;23.42;24.30
21357;BME280;10836;53.068;18.234;2023-06-04T10:07:51;101728.06;;;23.63;24.25
21357;BME280;10836;53.068;18.234;2023-06-04T10:10:24;101721.06;;;23.48;23.86
21357;BME280;10836;53.068;18.234;2023-06-04T10:13:00;101712.66;;;23.28;24.16
21357;BME280;10836;53.068;18.234;2023-06-04T10:15:30;101710.59;;;23.96;23.38
21357;BME280;10836;53.068;18.234;2023-06-04T10:18:01;101713.00;;;24.27;26.00
21357;BME280;10836;53.068;18.234;2023-06-04T10:20:30;101718.38;;;25.59;22.33
21357;BME280;10836;53.068;18.234;2023-06-04T10:22:57;101715.28;;;25.11;23.96
21357;BME280;10836;53.068;18.234;2023-06-04T10:25:26;101705.25;;;25.71;23.02
21357;BME280;10836;53.068;18.234;2023-06-04T10:27:53;101716.41;;;24.32;23.50
21357;BME280;10836;53.068;18.234;2023-06-04T10:30:20;101705.81;;;24.71;23.02
21357;BME280;10836;53.068;18.234;2023-06-04T10:32:47;101709.88;;;25.18;25.31
21357;BME280;10836;53.068;18.234;2023-06-04T10:35:14;101715.47;;;25.92;21.93
21357;BME280;10836;53.068;18.234;2023-06-04T10:37:42;101715.72;;;25.50;21.57
21357;BME280;10836;53.068;18.234;2023-06-04T10:40:09;101712.22;;;25.29;24.34
21357;BME280;10836;53.068;18.234;2023-06-04T10:42:42;101702.88;;;22.40;24.03
21357;BME280;10836;53.068;18.234;2023-06-04T10:45:10;101705.66;;;21.88;25.98
21357;BME280;10836;53.068;18.234;2023-06-04T10:47:37;101710.72;;;23.19;25.62
21357;BME280;10836;53.068;18.234;2023-06-04T10:50:10;101707.13;;;24.40;25.67
21357;BME280;10836;53.068;18.234;2023-06-04T10:52:38;101704.53;;;25.13;26.47
21357;BME280;10836;53.068;18.234;2023-06-04T10:55:07;101713.06;;;25.41;25.21
21357;BME280;10836;53.068;18.234;2023-06-04T10:57:35;101711.28;;;25.61;24.14
21357;BME280;10836;53.068;18.234;2023-06-04T11:00:06;101698.03;;;25.09;23.50
21357;BME280;10836;53.068;18.234;2023-06-04T11:02:38;101707.34;;;24.35;23.31
21357;BME280;10836;53.068;18.234;2023-06-04T11:05:16;101698.38;;;25.32;27.00
21357;BME280;10836;53.068;18.234;2023-06-04T11:07:44;101700.59;;;25.51;23.28
21357;BME280;10836;53.068;18.234;2023-06-04T11:10:13;101704.69;;;26.06;23.60
21357;BME280;10836;53.068;18.234;2023-06-04T11:12:42;101705.56;;;25.82;22.81
21357;BME280;10836;53.068;18.234;2023-06-04T11:15:10;101698.97;;;25.50;25.46
21357;BME280;10836;53.068;18.234;2023-06-04T11:17:37;101706.22;;;26.03;22.49
21357;BME280;10836;53.068;18.234;2023-06-04T11:20:16;101698.81;;;26.23;22.22
21357;BME280;10836;53.068;18.234;2023-06-04T11:25:19;101701.78;;;26.42;22.13
21357;BME280;10836;53.068;18.234;2023-06-04T11:27:49;101694.94;;;26.56;22.63
21357;BME280;10836;53.068;18.234;2023-06-04T11:30:22;101699.09;;;26.62;22.48
21357;BME280;10836;53.068;18.234;2023-06-04T11:32:49;101685.09;;;25.66;22.24
21357;BME280;10836;53.068;18.234;2023-06-04T11:35:17;101687.16;;;25.57;22.49
21357;BME280;10836;53.068;18.234;2023-06-04T11:37:57;101690.81;;;25.33;24.87
21357;BME280;10836;53.068;18.234;2023-06-04T11:40:25;101688.94;;;25.12;24.85
21357;BME280;10836;53.068;18.234;2023-06-04T11:42:53;101677.69;;;24.88;24.32
21357;BME280;10836;53.068;18.234;2023-06-04T11:45:22;101680.53;;;24.01;26.53
21357;BME280;10836;53.068;18.234;2023-06-04T11:47:50;101685.44;;;25.03;23.80
21357;BME280;10836;53.068;18.234;2023-06-04T11:50:18;101686.38;;;25.07;25.45
21357;BME280;10836;53.068;18.234;2023-06-04T11:52:47;101677.94;;;24.95;23.84
21357;BME280;10836;53.068;18.234;2023-06-04T11:55:15;101681.47;;;25.53;23.33
21357;BME280;10836;53.068;18.234;2023-06-04T11:57:47;101676.13;;;25.36;23.07
21357;BME280;10836;53.068;18.234;2023-06-04T12:00:16;101678.59;;;26.58;22.09
21357;BME280;10836;53.068;18.234;2023-06-04T12:02:55;101675.66;;;25.46;22.88
21357;BME280;10836;53.068;18.234;2023-06-04T12:05:28;101665.25;;;26.11;23.17
21357;BME280;10836;53.068;18.234;2023-06-04T12:08:05;101676.78;;;25.81;22.43
21357;BME280;10836;53.068;18.234;2023-06-04T12:10:41;101666.09;;;24.98;23.45
21357;BME280;10836;53.068;18.234;2023-06-04T12:13:08;101664.53;;;26.14;24.07
21357;BME280;10836;53.068;18.234;2023-06-04T12:15:36;101662.09;;;25.72;22.10
21357;BME280;10836;53.068;18.234;2023-06-04T12:18:02;101670.75;;;25.31;23.13
21357;BME280;10836;53.068;18.234;2023-06-04T12:20:36;101672.63;;;25.51;23.16
21357;BME280;10836;53.068;18.234;2023-06-04T12:23:05;101667.25;;;25.22;22.88
21357;BME280;10836;53.068;18.234;2023-06-04T12:25:34;101676.34;;;25.43;22.83
21357;BME280;10836;53.068;18.234;2023-06-04T12:28:04;101679.78;;;24.13;24.27
21357;BME280;10836;53.068;18.234;2023-06-04T12:30:39;101667.44;;;24.68;25.67
21357;BME280;10836;53.068;18.234;2023-06-04T12:33:07;101681.72;;;25.11;23.21
21357;BME280;10836;53.068;18.234;2023-06-04T12:35:35;101664.66;;;24.68;22.95
21357;BME280;10836;53.068;18.234;2023-06-04T12:38:04;101668.53;;;23.59;25.17
21357;BME280;10836;53.068;18.234;2023-06-04T12:40:32;101660.06;;;23.47;25.47
21357;BME280;10836;53.068;18.234;2023-06-04T12:42:59;101659.72;;;23.99;25.54
21357;BME280;10836;53.068;18.234;2023-06-04T12:45:27;101664.34;;;24.48;24.70
21357;BME280;10836;53.068;18.234;2023-06-04T12:47:53;101656.56;;;25.24;26.03
21357;BME280;10836;53.068;18.234;2023-06-04T12:50:21;101662.84;;;25.33;25.78
21357;BME280;10836;53.068;18.234;2023-06-04T12:52:48;101663.94;;;26.48;22.24
21357;BME280;10836;53.068;18.234;2023-06-04T12:55:16;101668.56;;;26.88;23.37
21357;BME280;10836;53.068;18.234;2023-06-04T12:57:44;101661.06;;;25.65;21.68